sensor_id;sensor_type;location;lat;lon;timestamp;P1;durP1;ratioP1;P2;durP2;ratioP2
42702;SDS011;28341;52.064;4.920;2023-03-03T00:00:09;29.63;;;18.58;;
42702;SDS011;28341;52.064;4.920;2023-03-03T00:02:16;33.47;;;19.38;;
42702;SDS011;28341;52.064;4.920;2023-03-03T00:04:23;34.95;;;20.20;;
42702;SDS011;28341;52.064;4.920;2023-03-03T00:06:28;32.47;;;19.63;;
42702;SDS011;28341;52.064;4.920;2023-03-03T00:08:32;47.78;;;28.83;;
42702;SDS011;28341;52.064;4.920;2023-03-03T00:10:37;54.13;;;33.73;;
42702;SDS011;28341;52.064;4.920;2023-03-03T00:12:45;40.60;;;23.55;;
42702;SDS011;28341;52.064;4.920;2023-03-03T00:14:51;39.20;;;21.23;;
42702;SDS011;28341;52.064;4.920;2023-03-03T00:16:56;38.58;;;21.20;;
42702;SDS011;28341;52.064;4.920;2023-03-03T00:19:02;35.13;;;20.83;;
42702;SDS011;28341;52.064;4.920;2023-03-03T00:21:21;38.27;;;22.57;;
42702;SDS011;28341;52.064;4.920;2023-03-03T00:23:29;37.53;;;21.83;;
42702;SDS011;28341;52.064;4.920;2023-03-03T00:25:37;40.72;;;22.40;;
42702;SDS011;28341;52.064;4.920;2023-03-03T00:27:45;42.97;;;22.20;;
42702;SDS011;28341;52.064;4.920;2023-03-03T00:29:49;39.97;;;22.40;;
42702;SDS011;28341;52.064;4.920;2023-03-03T00:31:58;42.97;;;24.40;;
42702;SDS011;28341;52.064;4.920;2023-03-03T00:34:26;41.00;;;23.20;;
42702;SDS011;28341;52.064;4.920;2023-03-03T00:36:36;46.35;;;23.52;;
42702;SDS011;28341;52.064;4.920;2023-03-03T00:38:42;45.53;;;25.27;;
42702;SDS011;28341;52.064;4.920;2023-03-03T00:40:47;45.63;;;24.10;;
42702;SDS011;28341;52.064;4.920;2023-03-03T00:42:52;42.25;;;22.63;;
42702;SDS011;28341;52.064;4.920;2023-03-03T00:44:58;41.45;;;22.70;;
42702;SDS011;28341;52.064;4.920;2023-03-03T00:47:01;46.55;;;23.35;;
42702;SDS011;28341;52.064;4.920;2023-03-03T00:49:29;47.33;;;24.10;;
42702;SDS011;28341;52.064;4.920;2023-03-03T00:51:36;43.55;;;24.30;;
42702;SDS011;28341;52.064;4.920;2023-03-03T00:53:41;47.38;;;23.45;;
42702;SDS011;28341;52.064;4.920;2023-03-03T00:55:46;47.58;;;23.92;;
42702;SDS011;28341;52.064;4.920;2023-03-03T00:57:52;46.00;;;23.30;;
42702;SDS011;28341;52.064;4.920;2023-03-03T01:00:02;45.00;;;24.27;;
42702;SDS011;28341;52.064;4.920;2023-03-03T01:02:08;50.17;;;24.55;;
42702;SDS011;28341;52.064;4.920;2023-03-03T01:04:13;52.25;;;24.40;;
42702;SDS011;28341;52.064;4.920;2023-03-03T01:06:18;50.88;;;25.52;;
42702;SDS011;28341;52.064;4.920;2023-03-03T01:08:25;56.28;;;27.90;;
42702;SDS011;28341;52.064;4.920;2023-03-03T01:10:30;49.03;;;26.50;;
42702;SDS011;28341;52.064;4.920;2023-03-03T01:12:37;46.97;;;26.52;;
42702;SDS011;28341;52.064;4.920;2023-03-03T01:14:42;59.15;;;26.92;;
42702;SDS011;28341;52.064;4.920;2023-03-03T01:16:48;59.08;;;28.08;;
42702;SDS011;28341;52.064;4.920;2023-03-03T01:18:53;57.50;;;27.08;;
42702;SDS011;28341;52.064;4.920;2023-03-03T01:20:57;56.70;;;27.17;;
42702;SDS011;28341;52.064;4.920;2023-03-03T01:23:02;52.90;;;27.23;;
42702;SDS011;28341;52.064;4.920;2023-03-03T01:25:09;51.03;;;26.85;;
42702;SDS011;28341;52.064;4.920;2023-03-03T01:27:14;53.55;;;28.15;;
42702;SDS011;28341;52.064;4.920;2023-03-03T01:29:18;56.08;;;27.20;;
42702;SDS011;28341;52.064;4.920;2023-03-03T01:31:23;50.47;;;26.70;;
42702;SDS011;28341;52.064;4.920;2023-03-03T01:33:28;56.20;;;27.88;;
42702;SDS011;28341;52.064;4.920;2023-03-03T01:35:33;54.20;;;26.95;;
42702;SDS011;28341;52.064;4.920;2023-03-03T01:37:40;50.17;;;26.55;;
42702;SDS011;28341;52.064;4.920;2023-03-03T01:39:47;52.30;;;26.67;;
42702;SDS011;28341;52.064;4.920;2023-03-03T01:41:55;48.13;;;24.77;;
42702;SDS011;28341;52.064;4.920;2023-03-03T01:43:59;49.63;;;24.55;;
42702;SDS011;28341;52.064;4.920;2023-03-03T01:46:26;45.53;;;26.05;;
42702;SDS011;28341;52.064;4.920;2023-03-03T01:48:57;46.05;;;24.23;;
42702;SDS011;28341;52.064;4.920;2023-03-03T01:51:05;40.90;;;24.25;;
42702;SDS011;28341;52.064;4.920;2023-03-03T01:53:14;44.58;;;23.52;;
42702;SDS011;28341;52.064;4.920;2023-03-03T01:55:24;48.85;;;26.27;;
42702;SDS011;28341;52.064;4.920;2023-03-03T01:57:35;46.65;;;25.30;;
42702;SDS011;28341;52.064;4.920;2023-03-03T01:59:43;48.27;;;24.83;;
42702;SDS011;28341;52.064;4.920;2023-03-03T02:01:51;45.40;;;25.10;;
42702;SDS011;28341;52.064;4.920;2023-03-03T02:03:55;45.83;;;26.27;;
42702;SDS011;28341;52.064;4.920;2023-03-03T02:06:02;49.03;;;26.73;;
42702;SDS011;28341;52.064;4.920;2023-03-03T02:08:10;51.45;;;25.52;;
42702;SDS011;28341;52.064;4.920;2023-03-03T02:10:18;49.08;;;26.33;;
42702;SDS011;28341;52.064;4.920;2023-03-03T02:12:25;50.60;;;25.50;;
42702;SDS011;28341;52.064;4.920;2023-03-03T02:14:38;49.47;;;27.08;;
42702;SDS011;28341;52.064;4.920;2023-03-03T02:16:43;47.60;;;26.33;;
42702;SDS011;28341;52.064;4.920;2023-03-03T02:18:48;48.87;;;26.53;;
42702;SDS011;28341;52.064;4.920;2023-03-03T02:20:53;45.28;;;26.40;;
42702;SDS011;28341;52.064;4.920;2023-03-03T02:23:02;52.00;;;27.37;;
42702;SDS011;28341;52.064;4.920;2023-03-03T02:25:15;52.65;;;29.40;;
42702;SDS011;28341;52.064;4.920;2023-03-03T02:27:27;49.67;;;28.67;;
42702;SDS011;28341;52.064;4.920;2023-03-03T02:29:34;53.35;;;29.13;;
42702;SDS011;28341;52.064;4.920;2023-03-03T02:31:40;52.55;;;29.35;;
42702;SDS011;28341;52.064;4.920;2023-03-03T02:33:45;53.90;;;28.60;;
42702;SDS011;28341;52.064;4.920;2023-03-03T02:35:52;52.47;;;28.47;;
42702;SDS011;28341;52.064;4.920;2023-03-03T02:37:58;53.23;;;29.67;;
42702;SDS011;28341;52.064;4.920;2023-03-03T02:40:13;53.40;;;29.67;;
42702;SDS011;28341;52.064;4.920;2023-03-03T02:42:19;60.50;;;31.60;;
42702;SDS011;28341;52.064;4.920;2023-03-03T02:44:32;52.87;;;30.37;;
42702;SDS011;28341;52.064;4.920;2023-03-03T02:46:37;54.47;;;31.33;;
42702;SDS011;28341;52.064;4.920;2023-03-03T02:48:44;58.03;;;30.90;;
42702;SDS011;28341;52.064;4.920;2023-03-03T02:50:49;58.25;;;30.88;;
42702;SDS011;28341;52.064;4.920;2023-03-03T02:52:53;59.95;;;31.75;;
42702;SDS011;28341;52.064;4.920;2023-03-03T02:54:58;64.32;;;31.73;;
42702;SDS011;28341;52.064;4.920;2023-03-03T02:57:03;59.25;;;32.25;;
42702;SDS011;28341;52.064;4.920;2023-03-03T02:59:08;64.72;;;32.35;;
42702;SDS011;28341;52.064;4.920;2023-03-03T03:01:20;58.55;;;30.60;;
42702;SDS011;28341;52.064;4.920;2023-03-03T03:03:27;55.50;;;28.17;;
42702;SDS011;28341;52.064;4.920;2023-03-03T03:05:32;60.20;;;30.27;;
42702;SDS011;28341;52.064;4.920;2023-03-03T03:07:37;56.47;;;29.83;;
42702;SDS011;28341;52.064;4.920;2023-03-03T03:09:42;58.53;;;30.15;;
42702;SDS011;28341;52.064;4.920;2023-03-03T03:11:47;57.47;;;30.88;;
42702;SDS011;28341;52.064;4.920;2023-03-03T03:13:54;69.85;;;32.65;;
42702;SDS011;28341;52.064;4.920;2023-03-03T03:15:59;55.28;;;29.40;;
42702;SDS011;28341;52.064;4.920;2023-03-03T03:18:06;61.03;;;29.92;;
42702;SDS011;28341;52.064;4.920;2023-03-03T03:20:12;53.75;;;30.17;;
42702;SDS011;28341;52.064;4.920;2023-03-03T03:22:16;56.60;;;29.52;;
42702;SDS011;28341;52.064;4.920;2023-03-03T03:24:21;58.17;;;29.02;;
42702;SDS011;28341;52.064;4.920;2023-03-03T03:26:31;54.10;;;27.23;;
42702;SDS011;28341;52.064;4.920;2023-03-03T03:28:36;41.63;;;23.48;;
42702;SDS011;28341;52.064;4.920;2023-03-03T03:30:41;40.33;;;21.65;;
42702;SDS011;28341;52.064;4.920;2023-03-03T03:32:46;41.70;;;21.30;;
42702;SDS011;28341;52.064;4.920;2023-03-03T03:34:54;40.80;;;21.73;;
42702;SDS011;28341;52.064;4.920;2023-03-03T03:36:59;38.58;;;20.35;;
42702;SDS011;28341;52.064;4.920;2023-03-03T03:39:03;39.90;;;20.10;;
42702;SDS011;28341;52.064;4.920;2023-03-03T03:41:11;34.05;;;18.75;;
42702;SDS011;28341;52.064;4.920;2023-03-03T03:43:16;39.97;;;20.13;;
42702;SDS011;28341;52.064;4.920;2023-03-03T03:45:21;40.93;;;19.73;;
42702;SDS011;28341;52.064;4.920;2023-03-03T03:47:25;42.60;;;21.47;;
42702;SDS011;28341;52.064;4.920;2023-03-03T03:49:31;40.03;;;21.55;;
42702;SDS011;28341;52.064;4.920;2023-03-03T03:51:38;39.43;;;20.97;;
42702;SDS011;28341;52.064;4.920;2023-03-03T03:53:46;40.22;;;20.80;;
42702;SDS011;28341;52.064;4.920;2023-03-03T03:55:51;42.55;;;21.77;;
42702;SDS011;28341;52.064;4.920;2023-03-03T03:57:56;41.15;;;21.45;;
42702;SDS011;28341;52.064;4.920;2023-03-03T04:00:01;44.33;;;22.45;;
42702;SDS011;28341;52.064;4.920;2023-03-03T04:02:14;46.65;;;22.70;;
42702;SDS011;28341;52.064;4.920;2023-03-03T04:04:18;46.63;;;22.45;;
42702;SDS011;28341;52.064;4.920;2023-03-03T04:06:24;46.30;;;24.25;;
42702;SDS011;28341;52.064;4.920;2023-03-03T04:08:31;46.95;;;24.52;;
42702;SDS011;28341;52.064;4.920;2023-03-03T04:10:36;48.08;;;23.98;;
42702;SDS011;28341;52.064;4.920;2023-03-03T04:12:40;62.83;;;28.45;;
42702;SDS011;28341;52.064;4.920;2023-03-03T04:14:47;50.03;;;26.90;;
42702;SDS011;28341;52.064;4.920;2023-03-03T04:16:52;51.05;;;25.35;;
42702;SDS011;28341;52.064;4.920;2023-03-03T04:18:57;53.10;;;25.90;;
42702;SDS011;28341;52.064;4.920;2023-03-03T04:21:01;49.75;;;26.60;;
42702;SDS011;28341;52.064;4.920;2023-03-03T04:23:07;43.85;;;23.13;;
42702;SDS011;28341;52.064;4.920;2023-03-03T04:25:15;46.70;;;23.45;;
42702;SDS011;28341;52.064;4.920;2023-03-03T04:27:21;48.50;;;23.60;;
42702;SDS011;28341;52.064;4.920;2023-03-03T04:29:26;45.38;;;21.73;;
42702;SDS011;28341;52.064;4.920;2023-03-03T04:31:31;48.38;;;23.00;;
42702;SDS011;28341;52.064;4.920;2023-03-03T04:33:37;53.55;;;24.23;;
42702;SDS011;28341;52.064;4.920;2023-03-03T04:35:42;52.08;;;24.30;;
42702;SDS011;28341;52.064;4.920;2023-03-03T04:37:47;49.13;;;23.83;;
42702;SDS011;28341;52.064;4.920;2023-03-03T04:39:51;52.42;;;24.15;;
42702;SDS011;28341;52.064;4.920;2023-03-03T04:41:58;49.72;;;22.95;;
42702;SDS011;28341;52.064;4.920;2023-03-03T04:44:04;50.45;;;22.42;;
42702;SDS011;28341;52.064;4.920;2023-03-03T04:46:09;48.17;;;22.55;;
42702;SDS011;28341;52.064;4.920;2023-03-03T04:48:13;47.92;;;22.75;;
42702;SDS011;28341;52.064;4.920;2023-03-03T04:50:18;54.28;;;23.88;;
42702;SDS011;28341;52.064;4.920;2023-03-03T04:52:23;46.42;;;22.00;;
42702;SDS011;28341;52.064;4.920;2023-03-03T04:54:27;46.75;;;22.38;;
42702;SDS011;28341;52.064;4.920;2023-03-03T04:56:32;46.78;;;22.88;;
42702;SDS011;28341;52.064;4.920;2023-03-03T04:58:40;53.78;;;23.38;;
42702;SDS011;28341;52.064;4.920;2023-03-03T05:00:45;57.13;;;22.33;;
42702;SDS011;28341;52.064;4.920;2023-03-03T05:02:50;59.95;;;24.00;;
42702;SDS011;28341;52.064;4.920;2023-03-03T05:04:55;49.53;;;22.40;;
42702;SDS011;28341;52.064;4.920;2023-03-03T05:06:59;50.50;;;23.20;;
42702;SDS011;28341;52.064;4.920;2023-03-03T05:09:04;51.75;;;23.92;;
42702;SDS011;28341;52.064;4.920;2023-03-03T05:11:09;65.40;;;23.27;;
42702;SDS011;28341;52.064;4.920;2023-03-03T05:13:13;58.25;;;24.25;;
42702;SDS011;28341;52.064;4.920;2023-03-03T05:15:21;58.17;;;23.23;;
42702;SDS011;28341;52.064;4.920;2023-03-03T05:17:25;48.38;;;22.65;;
42702;SDS011;28341;52.064;4.920;2023-03-03T05:19:30;56.28;;;23.67;;
42702;SDS011;28341;52.064;4.920;2023-03-03T05:21:35;51.05;;;22.25;;
42702;SDS011;28341;52.064;4.920;2023-03-03T05:23:41;47.42;;;21.98;;
42702;SDS011;28341;52.064;4.920;2023-03-03T05:25:46;54.83;;;23.27;;
42702;SDS011;28341;52.064;4.920;2023-03-03T05:27:51;58.33;;;22.65;;
42702;SDS011;28341;52.064;4.920;2023-03-03T05:29:56;60.42;;;23.33;;
42702;SDS011;28341;52.064;4.920;2023-03-03T05:32:03;51.17;;;23.50;;
42702;SDS011;28341;52.064;4.920;2023-03-03T05:34:08;66.75;;;24.40;;
42702;SDS011;28341;52.064;4.920;2023-03-03T05:36:13;52.17;;;24.15;;
42702;SDS011;28341;52.064;4.920;2023-03-03T05:38:17;58.05;;;24.83;;
42702;SDS011;28341;52.064;4.920;2023-03-03T05:40:22;64.25;;;22.52;;
42702;SDS011;28341;52.064;4.920;2023-03-03T05:42:26;64.32;;;24.00;;
42702;SDS011;28341;52.064;4.920;2023-03-03T05:44:31;50.72;;;22.75;;
42702;SDS011;28341;52.064;4.920;2023-03-03T05:46:35;52.38;;;23.60;;
42702;SDS011;28341;52.064;4.920;2023-03-03T05:48:42;60.15;;;23.65;;
42702;SDS011;28341;52.064;4.920;2023-03-03T05:50:47;68.75;;;25.83;;
42702;SDS011;28341;52.064;4.920;2023-03-03T05:52:52;61.63;;;23.30;;
42702;SDS011;28341;52.064;4.920;2023-03-03T05:54:56;55.53;;;25.13;;
42702;SDS011;28341;52.064;4.920;2023-03-03T05:57:01;58.55;;;24.08;;
42702;SDS011;28341;52.064;4.920;2023-03-03T05:59:05;83.10;;;25.80;;
42702;SDS011;28341;52.064;4.920;2023-03-03T06:01:09;54.92;;;24.65;;
42702;SDS011;28341;52.064;4.920;2023-03-03T06:03:14;72.95;;;26.13;;
42702;SDS011;28341;52.064;4.920;2023-03-03T06:05:21;68.68;;;26.45;;
42702;SDS011;28341;52.064;4.920;2023-03-03T06:07:26;77.85;;;25.95;;
42702;SDS011;28341;52.064;4.920;2023-03-03T06:09:31;68.32;;;26.27;;
42702;SDS011;28341;52.064;4.920;2023-03-03T06:11:36;72.50;;;25.48;;
42702;SDS011;28341;52.064;4.920;2023-03-03T06:13:40;64.87;;;25.53;;
42702;SDS011;28341;52.064;4.920;2023-03-03T06:15:45;64.03;;;25.85;;
42702;SDS011;28341;52.064;4.920;2023-03-03T06:17:50;64.30;;;25.35;;
42702;SDS011;28341;52.064;4.920;2023-03-03T06:19:54;57.28;;;25.05;;
42702;SDS011;28341;52.064;4.920;2023-03-03T06:22:01;55.25;;;24.23;;
42702;SDS011;28341;52.064;4.920;2023-03-03T06:24:07;59.92;;;25.05;;
42702;SDS011;28341;52.064;4.920;2023-03-03T06:26:11;55.13;;;25.45;;
42702;SDS011;28341;52.064;4.920;2023-03-03T06:28:16;65.32;;;26.02;;
42702;SDS011;28341;52.064;4.920;2023-03-03T06:30:21;58.83;;;27.40;;
42702;SDS011;28341;52.064;4.920;2023-03-03T06:32:26;76.95;;;29.88;;
42702;SDS011;28341;52.064;4.920;2023-03-03T06:34:30;84.28;;;29.95;;
42702;SDS011;28341;52.064;4.920;2023-03-03T06:36:35;65.68;;;28.05;;
42702;SDS011;28341;52.064;4.920;2023-03-03T06:38:42;66.07;;;29.00;;
42702;SDS011;28341;52.064;4.920;2023-03-03T06:40:47;63.58;;;29.02;;
42702;SDS011;28341;52.064;4.920;2023-03-03T06:42:51;66.25;;;28.10;;
42702;SDS011;28341;52.064;4.920;2023-03-03T06:44:56;61.97;;;28.55;;
42702;SDS011;28341;52.064;4.920;2023-03-03T06:47:00;70.43;;;28.55;;
42702;SDS011;28341;52.064;4.920;2023-03-03T06:49:05;63.95;;;29.33;;
42702;SDS011;28341;52.064;4.920;2023-03-03T06:51:15;59.85;;;27.70;;
42702;SDS011;28341;52.064;4.920;2023-03-03T06:53:27;65.65;;;28.83;;
42702;SDS011;28341;52.064;4.920;2023-03-03T06:55:38;73.47;;;35.10;;
42702;SDS011;28341;52.064;4.920;2023-03-03T06:57:44;66.85;;;30.52;;
42702;SDS011;28341;52.064;4.920;2023-03-03T06:59:50;79.03;;;38.60;;
42702;SDS011;28341;52.064;4.920;2023-03-03T07:01:56;70.82;;;29.70;;
42702;SDS011;28341;52.064;4.920;2023-03-03T07:04:01;65.75;;;29.83;;
42702;SDS011;28341;52.064;4.920;2023-03-03T07:06:19;63.22;;;27.33;;
42702;SDS011;28341;52.064;4.920;2023-03-03T07:08:29;60.42;;;27.65;;
42702;SDS011;28341;52.064;4.920;2023-03-03T07:10:34;64.90;;;27.02;;
42702;SDS011;28341;52.064;4.920;2023-03-03T07:12:41;60.85;;;26.27;;
42702;SDS011;28341;52.064;4.920;2023-03-03T07:14:47;59.92;;;27.08;;
42702;SDS011;28341;52.064;4.920;2023-03-03T07:16:55;54.85;;;27.05;;
42702;SDS011;28341;52.064;4.920;2023-03-03T07:19:08;57.95;;;26.00;;
42702;SDS011;28341;52.064;4.920;2023-03-03T07:21:22;58.70;;;27.02;;
42702;SDS011;28341;52.064;4.920;2023-03-03T07:23:31;90.32;;;43.08;;
42702;SDS011;28341;52.064;4.920;2023-03-03T07:25:44;75.43;;;38.40;;
42702;SDS011;28341;52.064;4.920;2023-03-03T07:27:49;61.40;;;31.60;;
42702;SDS011;28341;52.064;4.920;2023-03-03T07:29:54;57.45;;;28.27;;
42702;SDS011;28341;52.064;4.920;2023-03-03T07:32:20;53.75;;;25.50;;
42702;SDS011;28341;52.064;4.920;2023-03-03T07:34:30;56.92;;;25.75;;
42702;SDS011;28341;52.064;4.920;2023-03-03T07:36:40;55.90;;;25.70;;
42702;SDS011;28341;52.064;4.920;2023-03-03T07:38:46;55.30;;;25.40;;
42702;SDS011;28341;52.064;4.920;2023-03-03T07:40:57;51.92;;;24.23;;
42702;SDS011;28341;52.064;4.920;2023-03-03T07:43:15;49.20;;;24.17;;
42702;SDS011;28341;52.064;4.920;2023-03-03T07:45:35;52.28;;;24.35;;
42702;SDS011;28341;52.064;4.920;2023-03-03T07:47:41;49.75;;;23.85;;
42702;SDS011;28341;52.064;4.920;2023-03-03T07:49:45;86.28;;;48.92;;
42702;SDS011;28341;52.064;4.920;2023-03-03T07:51:52;59.50;;;31.67;;
42702;SDS011;28341;52.064;4.920;2023-03-03T07:54:11;40.53;;;22.58;;
42702;SDS011;28341;52.064;4.920;2023-03-03T07:56:33;44.78;;;23.05;;
42702;SDS011;28341;52.064;4.920;2023-03-03T07:58:39;44.67;;;21.35;;
42702;SDS011;28341;52.064;4.920;2023-03-03T08:03:38;38.88;;;20.70;;
42702;SDS011;28341;52.064;4.920;2023-03-03T08:05:44;45.72;;;19.98;;
42702;SDS011;28341;52.064;4.920;2023-03-03T08:07:50;37.25;;;19.63;;
42702;SDS011;28341;52.064;4.920;2023-03-03T08:09:55;31.58;;;18.17;;
42702;SDS011;28341;52.064;4.920;2023-03-03T08:14:32;37.53;;;19.55;;
42702;SDS011;28341;52.064;4.920;2023-03-03T08:16:38;34.90;;;19.15;;
42702;SDS011;28341;52.064;4.920;2023-03-03T08:18:43;35.30;;;20.65;;
42702;SDS011;28341;52.064;4.920;2023-03-03T08:20:50;36.35;;;19.30;;
42702;SDS011;28341;52.064;4.920;2023-03-03T08:22:57;32.15;;;17.42;;
42702;SDS011;28341;52.064;4.920;2023-03-03T08:25:02;36.47;;;21.45;;
42702;SDS011;28341;52.064;4.920;2023-03-03T08:27:07;36.10;;;20.67;;
42702;SDS011;28341;52.064;4.920;2023-03-03T08:29:15;34.22;;;20.85;;
42702;SDS011;28341;52.064;4.920;2023-03-03T08:31:19;32.40;;;18.33;;
42702;SDS011;28341;52.064;4.920;2023-03-03T08:33:24;34.83;;;19.17;;
42702;SDS011;28341;52.064;4.920;2023-03-03T08:35:29;32.28;;;18.50;;
42702;SDS011;28341;52.064;4.920;2023-03-03T08:37:33;27.85;;;17.45;;
42702;SDS011;28341;52.064;4.920;2023-03-03T08:39:38;32.42;;;18.45;;
42702;SDS011;28341;52.064;4.920;2023-03-03T08:41:43;33.78;;;16.17;;
42702;SDS011;28341;52.064;4.920;2023-03-03T08:43:47;30.77;;;17.80;;
42702;SDS011;28341;52.064;4.920;2023-03-03T08:45:56;30.85;;;18.23;;
42702;SDS011;28341;52.064;4.920;2023-03-03T08:48:03;26.52;;;15.80;;
42702;SDS011;28341;52.064;4.920;2023-03-03T08:50:08;26.85;;;15.35;;
42702;SDS011;28341;52.064;4.920;2023-03-03T08:52:13;25.95;;;15.63;;
42702;SDS011;28341;52.064;4.920;2023-03-03T08:54:18;22.70;;;14.38;;
42702;SDS011;28341;52.064;4.920;2023-03-03T08:56:22;27.52;;;15.57;;
42702;SDS011;28341;52.064;4.920;2023-03-03T08:58:27;26.80;;;16.80;;
42702;SDS011;28341;52.064;4.920;2023-03-03T09:00:31;44.42;;;26.45;;
42702;SDS011;28341;52.064;4.920;2023-03-03T09:02:40;25.52;;;16.08;;
42702;SDS011;28341;52.064;4.920;2023-03-03T09:04:45;27.08;;;15.55;;
42702;SDS011;28341;52.064;4.920;2023-03-03T09:06:49;25.15;;;15.55;;
42702;SDS011;28341;52.064;4.920;2023-03-03T09:08:53;24.08;;;13.77;;
42702;SDS011;28341;52.064;4.920;2023-03-03T09:10:58;25.40;;;13.07;;
42702;SDS011;28341;52.064;4.920;2023-03-03T09:13:03;22.02;;;12.07;;
42702;SDS011;28341;52.064;4.920;2023-03-03T09:15:20;20.35;;;12.95;;
42702;SDS011;28341;52.064;4.920;2023-03-03T09:17:28;21.10;;;12.50;;
42702;SDS011;28341;52.064;4.920;2023-03-03T09:19:37;20.02;;;12.30;;
42702;SDS011;28341;52.064;4.920;2023-03-03T09:21:42;19.02;;;12.70;;
42702;SDS011;28341;52.064;4.920;2023-03-03T09:23:48;21.02;;;12.05;;
42702;SDS011;28341;52.064;4.920;2023-03-03T09:26:10;19.50;;;12.30;;
42702;SDS011;28341;52.064;4.920;2023-03-03T09:28:27;18.92;;;11.27;;
42702;SDS011;28341;52.064;4.920;2023-03-03T09:30:36;22.42;;;12.73;;
42702;SDS011;28341;52.064;4.920;2023-03-03T09:32:43;21.13;;;11.20;;
42702;SDS011;28341;52.064;4.920;2023-03-03T09:34:50;17.35;;;10.55;;
42702;SDS011;28341;52.064;4.920;2023-03-03T09:36:54;15.52;;;11.05;;
42702;SDS011;28341;52.064;4.920;2023-03-03T09:38:59;13.60;;;9.13;;
42702;SDS011;28341;52.064;4.920;2023-03-03T09:41:11;15.20;;;9.68;;
42702;SDS011;28341;52.064;4.920;2023-03-03T09:44:11;17.90;;;10.30;;
42702;SDS011;28341;52.064;4.920;2023-03-03T09:46:56;16.40;;;9.80;;
42702;SDS011;28341;52.064;4.920;2023-03-03T09:49:15;17.67;;;10.68;;
42702;SDS011;28341;52.064;4.920;2023-03-03T09:51:38;14.80;;;9.63;;
42702;SDS011;28341;52.064;4.920;2023-03-03T09:54:07;19.60;;;10.70;;
42702;SDS011;28341;52.064;4.920;2023-03-03T09:56:24;16.17;;;10.05;;
42702;SDS011;28341;52.064;4.920;2023-03-03T09:58:42;21.35;;;11.48;;
42702;SDS011;28341;52.064;4.920;2023-03-03T10:01:12;19.55;;;11.80;;
42702;SDS011;28341;52.064;4.920;2023-03-03T10:03:44;20.85;;;8.57;;
42702;SDS011;28341;52.064;4.920;2023-03-03T10:06:08;16.35;;;8.85;;
42702;SDS011;28341;52.064;4.920;2023-03-03T10:08:25;15.40;;;8.95;;
42702;SDS011;28341;52.064;4.920;2023-03-03T10:10:55;18.13;;;8.73;;
42702;SDS011;28341;52.064;4.920;2023-03-03T10:13:10;13.70;;;8.60;;
42702;SDS011;28341;52.064;4.920;2023-03-03T10:15:29;16.35;;;8.38;;
42702;SDS011;28341;52.064;4.920;2023-03-03T10:17:43;14.93;;;8.10;;
42702;SDS011;28341;52.064;4.920;2023-03-03T10:19:57;12.82;;;8.05;;
42702;SDS011;28341;52.064;4.920;2023-03-03T10:22:16;11.00;;;6.68;;
42702;SDS011;28341;52.064;4.920;2023-03-03T10:24:28;15.40;;;7.07;;
42702;SDS011;28341;52.064;4.920;2023-03-03T10:26:37;12.55;;;6.95;;
42702;SDS011;28341;52.064;4.920;2023-03-03T10:28:59;19.25;;;8.00;;
42702;SDS011;28341;52.064;4.920;2023-03-03T10:31:12;13.93;;;6.80;;
42702;SDS011;28341;52.064;4.920;2023-03-03T10:33:26;14.35;;;6.80;;
42702;SDS011;28341;52.064;4.920;2023-03-03T10:38:38;13.00;;;7.18;;
42702;SDS011;28341;52.064;4.920;2023-03-03T10:40:57;11.90;;;7.03;;
42702;SDS011;28341;52.064;4.920;2023-03-03T10:43:30;13.45;;;6.28;;
42702;SDS011;28341;52.064;4.920;2023-03-03T10:48:49;9.75;;;5.40;;
42702;SDS011;28341;52.064;4.920;2023-03-03T10:51:06;8.00;;;5.15;;
42702;SDS011;28341;52.064;4.920;2023-03-03T10:53:21;13.30;;;9.10;;
42702;SDS011;28341;52.064;4.920;2023-03-03T10:55:35;10.00;;;5.63;;
42702;SDS011;28341;52.064;4.920;2023-03-03T10:57:54;10.05;;;5.60;;
42702;SDS011;28341;52.064;4.920;2023-03-03T11:00:14;9.35;;;5.53;;
42702;SDS011;28341;52.064;4.920;2023-03-03T11:02:25;10.68;;;5.05;;
42702;SDS011;28341;52.064;4.920;2023-03-03T11:04:39;6.95;;;4.22;;
42702;SDS011;28341;52.064;4.920;2023-03-03T11:06:52;6.97;;;4.03;;
42702;SDS011;28341;52.064;4.920;2023-03-03T11:09:02;10.38;;;3.67;;
42702;SDS011;28341;52.064;4.920;2023-03-03T11:11:14;9.48;;;4.18;;
42702;SDS011;28341;52.064;4.920;2023-03-03T11:13:25;7.63;;;3.75;;
42702;SDS011;28341;52.064;4.920;2023-03-03T11:15:39;8.23;;;3.40;;
42702;SDS011;28341;52.064;4.920;2023-03-03T11:17:56;6.88;;;4.32;;
42702;SDS011;28341;52.064;4.920;2023-03-03T11:20:17;9.15;;;4.25;;
42702;SDS011;28341;52.064;4.920;2023-03-03T11:22:33;12.10;;;4.90;;
42702;SDS011;28341;52.064;4.920;2023-03-03T11:24:46;8.93;;;3.83;;
42702;SDS011;28341;52.064;4.920;2023-03-03T11:27:01;7.38;;;3.60;;
42702;SDS011;28341;52.064;4.920;2023-03-03T11:29:33;7.32;;;3.83;;
42702;SDS011;28341;52.064;4.920;2023-03-03T11:31:54;6.72;;;3.80;;
42702;SDS011;28341;52.064;4.920;2023-03-03T11:34:00;4.60;;;3.10;;
42702;SDS011;28341;52.064;4.920;2023-03-03T11:36:19;9.45;;;3.70;;
42702;SDS011;28341;52.064;4.920;2023-03-03T11:38:33;6.57;;;3.50;;
42702;SDS011;28341;52.064;4.920;2023-03-03T11:40:47;6.10;;;3.85;;
42702;SDS011;28341;52.064;4.920;2023-03-03T11:42:57;8.25;;;3.80;;
42702;SDS011;28341;52.064;4.920;2023-03-03T11:45:13;8.55;;;3.22;;
42702;SDS011;28341;52.064;4.920;2023-03-03T11:47:23;8.40;;;3.08;;
42702;SDS011;28341;52.064;4.920;2023-03-03T11:49:32;8.23;;;3.10;;
42702;SDS011;28341;52.064;4.920;2023-03-03T11:51:44;5.40;;;3.35;;
42702;SDS011;28341;52.064;4.920;2023-03-03T11:53:58;6.95;;;3.10;;
42702;SDS011;28341;52.064;4.920;2023-03-03T11:56:09;4.63;;;2.53;;
42702;SDS011;28341;52.064;4.920;2023-03-03T11:58:24;8.10;;;3.22;;
42702;SDS011;28341;52.064;4.920;2023-03-03T12:00:36;5.05;;;3.30;;
42702;SDS011;28341;52.064;4.920;2023-03-03T12:02:53;7.10;;;3.42;;
42702;SDS011;28341;52.064;4.920;2023-03-03T12:05:15;4.28;;;3.20;;
42702;SDS011;28341;52.064;4.920;2023-03-03T12:07:46;6.53;;;3.03;;
42702;SDS011;28341;52.064;4.920;2023-03-03T12:10:02;7.55;;;2.85;;
42702;SDS011;28341;52.064;4.920;2023-03-03T12:12:21;6.13;;;2.85;;
42702;SDS011;28341;52.064;4.920;2023-03-03T12:14:32;4.03;;;1.90;;
42702;SDS011;28341;52.064;4.920;2023-03-03T12:16:58;5.60;;;2.08;;
42702;SDS011;28341;52.064;4.920;2023-03-03T12:19:08;7.30;;;2.17;;
42702;SDS011;28341;52.064;4.920;2023-03-03T12:21:40;5.88;;;1.90;;
42702;SDS011;28341;52.064;4.920;2023-03-03T12:23:59;4.03;;;1.70;;
42702;SDS011;28341;52.064;4.920;2023-03-03T12:26:15;4.22;;;1.50;;
42702;SDS011;28341;52.064;4.920;2023-03-03T12:28:23;4.88;;;2.00;;
42702;SDS011;28341;52.064;4.920;2023-03-03T12:30:34;4.65;;;1.58;;
42702;SDS011;28341;52.064;4.920;2023-03-03T12:33:07;3.85;;;1.70;;
42702;SDS011;28341;52.064;4.920;2023-03-03T12:35:25;4.88;;;1.60;;
42702;SDS011;28341;52.064;4.920;2023-03-03T12:37:47;6.90;;;2.00;;
42702;SDS011;28341;52.064;4.920;2023-03-03T12:40:00;7.65;;;2.05;;
42702;SDS011;28341;52.064;4.920;2023-03-03T12:42:11;4.70;;;1.80;;
42702;SDS011;28341;52.064;4.920;2023-03-03T12:44:25;8.98;;;2.30;;
42702;SDS011;28341;52.064;4.920;2023-03-03T12:46:39;4.70;;;2.45;;
42702;SDS011;28341;52.064;4.920;2023-03-03T12:48:50;3.13;;;1.90;;
42702;SDS011;28341;52.064;4.920;2023-03-03T12:50:58;6.78;;;3.05;;